sensor_id;sensor_type;location;lat;lon;timestamp;P1;durP1;ratioP1;P2;durP2;ratioP2
21562;SDS011;10942;47.894;11.424;2023-01-23T00:01:47;31.40;;;14.05;;
21562;SDS011;10942;47.894;11.424;2023-01-23T00:04:14;31.85;;;14.45;;
21562;SDS011;10942;47.894;11.424;2023-01-23T00:06:40;34.40;;;15.57;;
21562;SDS011;10942;47.894;11.424;2023-01-23T00:09:06;31.67;;;14.15;;
21562;SDS011;10942;47.894;11.424;2023-01-23T00:11:33;27.02;;;13.43;;
21562;SDS011;10942;47.894;11.424;2023-01-23T00:13:59;31.38;;;15.00;;
21562;SDS011;10942;47.894;11.424;2023-01-23T00:16:27;31.20;;;13.93;;
21562;SDS011;10942;47.894;11.424;2023-01-23T00:18:53;29.63;;;14.13;;
21562;SDS011;10942;47.894;11.424;2023-01-23T00:21:21;29.88;;;13.80;;
21562;SDS011;10942;47.894;11.424;2023-01-23T00:23:48;32.63;;;13.70;;
21562;SDS011;10942;47.894;11.424;2023-01-23T00:26:16;29.58;;;14.07;;
21562;SDS011;10942;47.894;11.424;2023-01-23T00:28:44;32.13;;;14.80;;
21562;SDS011;10942;47.894;11.424;2023-01-23T00:31:32;33.55;;;14.38;;
21562;SDS011;10942;47.894;11.424;2023-01-23T00:33:57;30.50;;;14.50;;
21562;SDS011;10942;47.894;11.424;2023-01-23T00:36:26;32.55;;;14.57;;
21562;SDS011;10942;47.894;11.424;2023-01-23T00:38:53;34.47;;;15.27;;
21562;SDS011;10942;47.894;11.424;2023-01-23T00:41:19;33.22;;;15.15;;
21562;SDS011;10942;47.894;11.424;2023-01-23T00:43:45;34.65;;;15.57;;
21562;SDS011;10942;47.894;11.424;2023-01-23T00:46:12;33.90;;;14.98;;
21562;SDS011;10942;47.894;11.424;2023-01-23T00:48:38;32.70;;;15.00;;
21562;SDS011;10942;47.894;11.424;2023-01-23T00:51:04;35.28;;;15.13;;
21562;SDS011;10942;47.894;11.424;2023-01-23T00:53:31;36.85;;;15.88;;
21562;SDS011;10942;47.894;11.424;2023-01-23T00:55:57;32.78;;;14.98;;
21562;SDS011;10942;47.894;11.424;2023-01-23T00:58:23;37.05;;;15.57;;
21562;SDS011;10942;47.894;11.424;2023-01-23T01:00:49;35.72;;;15.52;;
21562;SDS011;10942;47.894;11.424;2023-01-23T01:03:16;32.35;;;14.25;;
21562;SDS011;10942;47.894;11.424;2023-01-23T01:05:44;37.20;;;14.32;;
21562;SDS011;10942;47.894;11.424;2023-01-23T01:08:10;30.80;;;14.48;;
21562;SDS011;10942;47.894;11.424;2023-01-23T01:10:38;33.70;;;15.35;;
21562;SDS011;10942;47.894;11.424;2023-01-23T01:13:05;36.25;;;16.05;;
21562;SDS011;10942;47.894;11.424;2023-01-23T01:15:31;34.53;;;15.60;;
21562;SDS011;10942;47.894;11.424;2023-01-23T01:17:57;34.45;;;14.88;;
21562;SDS011;10942;47.894;11.424;2023-01-23T01:20:24;31.48;;;14.52;;
21562;SDS011;10942;47.894;11.424;2023-01-23T01:22:51;38.00;;;15.48;;
21562;SDS011;10942;47.894;11.424;2023-01-23T01:25:17;31.30;;;14.57;;
21562;SDS011;10942;47.894;11.424;2023-01-23T01:27:44;34.92;;;15.15;;
21562;SDS011;10942;47.894;11.424;2023-01-23T01:30:11;36.15;;;16.25;;
21562;SDS011;10942;47.894;11.424;2023-01-23T01:32:38;34.67;;;17.08;;
21562;SDS011;10942;47.894;11.424;2023-01-23T01:35:05;42.63;;;17.02;;
21562;SDS011;10942;47.894;11.424;2023-01-23T01:37:35;33.55;;;15.48;;
21562;SDS011;10942;47.894;11.424;2023-01-23T01:40:02;32.92;;;15.00;;
21562;SDS011;10942;47.894;11.424;2023-01-23T01:42:29;32.25;;;14.35;;
21562;SDS011;10942;47.894;11.424;2023-01-23T01:44:59;28.77;;;14.77;;
21562;SDS011;10942;47.894;11.424;2023-01-23T01:47:26;30.50;;;12.82;;
21562;SDS011;10942;47.894;11.424;2023-01-23T01:49:53;28.90;;;12.77;;
21562;SDS011;10942;47.894;11.424;2023-01-23T01:52:20;28.27;;;13.70;;
21562;SDS011;10942;47.894;11.424;2023-01-23T01:59:42;26.80;;;11.63;;
21562;SDS011;10942;47.894;11.424;2023-01-23T02:02:12;27.98;;;12.70;;
21562;SDS011;10942;47.894;11.424;2023-01-23T02:04:46;26.77;;;12.13;;
21562;SDS011;10942;47.894;11.424;2023-01-23T02:08:00;31.38;;;12.57;;
21562;SDS011;10942;47.894;11.424;2023-01-23T02:10:00;23.02;;;11.48;;
21562;SDS011;10942;47.894;11.424;2023-01-23T02:12:27;27.45;;;12.25;;
21562;SDS011;10942;47.894;11.424;2023-01-23T02:14:54;23.95;;;11.15;;
21562;SDS011;10942;47.894;11.424;2023-01-23T02:17:20;25.65;;;12.02;;
21562;SDS011;10942;47.894;11.424;2023-01-23T02:19:58;24.98;;;11.98;;
21562;SDS011;10942;47.894;11.424;2023-01-23T02:22:33;24.38;;;12.23;;
21562;SDS011;10942;47.894;11.424;2023-01-23T02:27:33;21.73;;;11.77;;
21562;SDS011;10942;47.894;11.424;2023-01-23T02:30:00;21.90;;;10.57;;
21562;SDS011;10942;47.894;11.424;2023-01-23T02:32:29;26.02;;;11.38;;
21562;SDS011;10942;47.894;11.424;2023-01-23T02:34:56;24.83;;;12.23;;
21562;SDS011;10942;47.894;11.424;2023-01-23T02:37:23;21.80;;;10.45;;
21562;SDS011;10942;47.894;11.424;2023-01-23T02:39:52;23.42;;;11.18;;
21562;SDS011;10942;47.894;11.424;2023-01-23T02:42:19;23.17;;;11.27;;
21562;SDS011;10942;47.894;11.424;2023-01-23T02:44:49;22.58;;;11.07;;
21562;SDS011;10942;47.894;11.424;2023-01-23T02:47:18;21.40;;;11.43;;
21562;SDS011;10942;47.894;11.424;2023-01-23T02:49:44;22.27;;;11.50;;
21562;SDS011;10942;47.894;11.424;2023-01-23T02:52:12;20.65;;;10.30;;
21562;SDS011;10942;47.894;11.424;2023-01-23T02:54:38;25.80;;;12.40;;
21562;SDS011;10942;47.894;11.424;2023-01-23T02:57:05;20.90;;;10.80;;
21562;SDS011;10942;47.894;11.424;2023-01-23T02:59:32;21.73;;;10.68;;
21562;SDS011;10942;47.894;11.424;2023-01-23T03:02:18;21.88;;;10.32;;
21562;SDS011;10942;47.894;11.424;2023-01-23T03:04:46;22.58;;;10.02;;
21562;SDS011;10942;47.894;11.424;2023-01-23T03:07:12;23.60;;;10.77;;
21562;SDS011;10942;47.894;11.424;2023-01-23T03:09:38;21.75;;;10.30;;
21562;SDS011;10942;47.894;11.424;2023-01-23T03:12:05;23.13;;;10.15;;
21562;SDS011;10942;47.894;11.424;2023-01-23T03:14:33;20.05;;;9.18;;
21562;SDS011;10942;47.894;11.424;2023-01-23T03:16:59;19.63;;;10.38;;
21562;SDS011;10942;47.894;11.424;2023-01-23T03:19:29;22.58;;;10.30;;
21562;SDS011;10942;47.894;11.424;2023-01-23T03:21:57;19.30;;;10.18;;
21562;SDS011;10942;47.894;11.424;2023-01-23T03:24:23;20.85;;;10.00;;
21562;SDS011;10942;47.894;11.424;2023-01-23T03:26:49;22.88;;;10.95;;
21562;SDS011;10942;47.894;11.424;2023-01-23T03:29:18;22.38;;;10.65;;
21562;SDS011;10942;47.894;11.424;2023-01-23T03:32:03;22.10;;;10.85;;
21562;SDS011;10942;47.894;11.424;2023-01-23T03:34:30;24.90;;;10.63;;
21562;SDS011;10942;47.894;11.424;2023-01-23T03:36:57;21.27;;;10.63;;
21562;SDS011;10942;47.894;11.424;2023-01-23T03:39:23;24.30;;;11.73;;
21562;SDS011;10942;47.894;11.424;2023-01-23T03:42:08;23.75;;;11.75;;
21562;SDS011;10942;47.894;11.424;2023-01-23T03:44:35;25.77;;;12.07;;
21562;SDS011;10942;47.894;11.424;2023-01-23T03:47:02;22.80;;;10.20;;
21562;SDS011;10942;47.894;11.424;2023-01-23T03:49:28;25.40;;;11.95;;
21562;SDS011;10942;47.894;11.424;2023-01-23T03:51:56;23.45;;;10.93;;
21562;SDS011;10942;47.894;11.424;2023-01-23T03:54:23;19.80;;;10.10;;
21562;SDS011;10942;47.894;11.424;2023-01-23T03:56:49;22.05;;;10.50;;
21562;SDS011;10942;47.894;11.424;2023-01-23T03:59:41;21.77;;;10.48;;
21562;SDS011;10942;47.894;11.424;2023-01-23T04:02:08;23.58;;;10.82;;
21562;SDS011;10942;47.894;11.424;2023-01-23T04:04:34;23.08;;;10.70;;
21562;SDS011;10942;47.894;11.424;2023-01-23T04:07:04;25.75;;;11.20;;
21562;SDS011;10942;47.894;11.424;2023-01-23T04:09:31;26.15;;;11.30;;
21562;SDS011;10942;47.894;11.424;2023-01-23T04:11:58;22.50;;;11.18;;
21562;SDS011;10942;47.894;11.424;2023-01-23T04:14:26;24.30;;;11.45;;
21562;SDS011;10942;47.894;11.424;2023-01-23T04:16:54;21.75;;;11.40;;
21562;SDS011;10942;47.894;11.424;2023-01-23T04:19:20;20.60;;;10.52;;
21562;SDS011;10942;47.894;11.424;2023-01-23T04:21:47;21.75;;;11.32;;
21562;SDS011;10942;47.894;11.424;2023-01-23T04:24:14;23.17;;;10.90;;
21562;SDS011;10942;47.894;11.424;2023-01-23T04:26:40;22.80;;;10.90;;
21562;SDS011;10942;47.894;11.424;2023-01-23T04:29:06;27.90;;;11.07;;
21562;SDS011;10942;47.894;11.424;2023-01-23T04:31:33;20.27;;;9.88;;
21562;SDS011;10942;47.894;11.424;2023-01-23T04:33:59;21.10;;;11.10;;
21562;SDS011;10942;47.894;11.424;2023-01-23T04:36:26;24.17;;;10.70;;
21562;SDS011;10942;47.894;11.424;2023-01-23T04:38:52;21.98;;;11.05;;
21562;SDS011;10942;47.894;11.424;2023-01-23T04:41:27;23.23;;;10.52;;
21562;SDS011;10942;47.894;11.424;2023-01-23T04:44:00;23.92;;;11.18;;
21562;SDS011;10942;47.894;11.424;2023-01-23T04:46:48;23.63;;;11.20;;
21562;SDS011;10942;47.894;11.424;2023-01-23T04:49:17;19.77;;;11.02;;
21562;SDS011;10942;47.894;11.424;2023-01-23T04:51:45;24.98;;;11.70;;
21562;SDS011;10942;47.894;11.424;2023-01-23T04:54:12;21.88;;;11.73;;
21562;SDS011;10942;47.894;11.424;2023-01-23T04:56:39;24.80;;;11.80;;
21562;SDS011;10942;47.894;11.424;2023-01-23T04:59:09;24.15;;;12.48;;
21562;SDS011;10942;47.894;11.424;2023-01-23T05:01:35;25.50;;;11.85;;
21562;SDS011;10942;47.894;11.424;2023-01-23T05:04:02;24.08;;;11.82;;
21562;SDS011;10942;47.894;11.424;2023-01-23T05:06:29;25.27;;;12.25;;
21562;SDS011;10942;47.894;11.424;2023-01-23T05:08:57;24.15;;;11.45;;
21562;SDS011;10942;47.894;11.424;2023-01-23T05:11:30;24.65;;;12.27;;
21562;SDS011;10942;47.894;11.424;2023-01-23T05:13:56;25.48;;;11.95;;
21562;SDS011;10942;47.894;11.424;2023-01-23T05:16:23;26.67;;;12.63;;
21562;SDS011;10942;47.894;11.424;2023-01-23T05:19:25;24.63;;;11.32;;
21562;SDS011;10942;47.894;11.424;2023-01-23T05:21:52;27.80;;;12.00;;
21562;SDS011;10942;47.894;11.424;2023-01-23T05:24:20;24.30;;;11.65;;
21562;SDS011;10942;47.894;11.424;2023-01-23T05:26:47;23.65;;;12.57;;
21562;SDS011;10942;47.894;11.424;2023-01-23T05:29:13;25.38;;;12.82;;
21562;SDS011;10942;47.894;11.424;2023-01-23T05:31:49;26.88;;;12.77;;
21562;SDS011;10942;47.894;11.424;2023-01-23T05:34:34;22.77;;;11.60;;
21562;SDS011;10942;47.894;11.424;2023-01-23T05:37:02;67.88;;;33.58;;
21562;SDS011;10942;47.894;11.424;2023-01-23T05:39:32;27.98;;;14.63;;
21562;SDS011;10942;47.894;11.424;2023-01-23T05:41:59;23.00;;;12.70;;
21562;SDS011;10942;47.894;11.424;2023-01-23T05:44:45;24.80;;;11.43;;
21562;SDS011;10942;47.894;11.424;2023-01-23T05:47:21;27.58;;;12.85;;
21562;SDS011;10942;47.894;11.424;2023-01-23T05:49:48;29.98;;;15.52;;
21562;SDS011;10942;47.894;11.424;2023-01-23T05:52:15;37.72;;;19.48;;
21562;SDS011;10942;47.894;11.424;2023-01-23T05:54:42;36.10;;;17.35;;
21562;SDS011;10942;47.894;11.424;2023-01-23T05:57:10;35.25;;;16.73;;
21562;SDS011;10942;47.894;11.424;2023-01-23T05:59:55;38.47;;;16.70;;
21562;SDS011;10942;47.894;11.424;2023-01-23T06:02:39;33.72;;;15.25;;
21562;SDS011;10942;47.894;11.424;2023-01-23T06:05:11;39.08;;;16.90;;
21562;SDS011;10942;47.894;11.424;2023-01-23T06:08:03;38.60;;;18.08;;
21562;SDS011;10942;47.894;11.424;2023-01-23T06:10:29;35.65;;;16.48;;
21562;SDS011;10942;47.894;11.424;2023-01-23T06:12:55;33.38;;;15.45;;
21562;SDS011;10942;47.894;11.424;2023-01-23T06:15:20;30.42;;;14.60;;
21562;SDS011;10942;47.894;11.424;2023-01-23T06:17:50;30.42;;;13.65;;
21562;SDS011;10942;47.894;11.424;2023-01-23T06:20:17;27.75;;;14.20;;
21562;SDS011;10942;47.894;11.424;2023-01-23T06:22:44;27.77;;;13.82;;
21562;SDS011;10942;47.894;11.424;2023-01-23T06:25:11;27.63;;;13.70;;
21562;SDS011;10942;47.894;11.424;2023-01-23T06:27:37;32.72;;;14.30;;
21562;SDS011;10942;47.894;11.424;2023-01-23T06:30:06;30.67;;;14.40;;
21562;SDS011;10942;47.894;11.424;2023-01-23T06:32:44;31.85;;;14.75;;
21562;SDS011;10942;47.894;11.424;2023-01-23T06:35:11;33.05;;;15.32;;
21562;SDS011;10942;47.894;11.424;2023-01-23T06:37:39;34.28;;;16.83;;
21562;SDS011;10942;47.894;11.424;2023-01-23T06:40:08;33.90;;;15.73;;
21562;SDS011;10942;47.894;11.424;2023-01-23T06:42:39;39.38;;;16.60;;
21562;SDS011;10942;47.894;11.424;2023-01-23T06:45:06;37.50;;;14.70;;
21562;SDS011;10942;47.894;11.424;2023-01-23T06:47:34;181.63;;;70.07;;
21562;SDS011;10942;47.894;11.424;2023-01-23T06:50:00;37.85;;;19.30;;
21562;SDS011;10942;47.894;11.424;2023-01-23T06:52:29;25.75;;;14.43;;
21562;SDS011;10942;47.894;11.424;2023-01-23T06:54:54;28.13;;;14.35;;
21562;SDS011;10942;47.894;11.424;2023-01-23T06:57:20;41.17;;;17.08;;
21562;SDS011;10942;47.894;11.424;2023-01-23T06:59:48;46.38;;;20.05;;
21562;SDS011;10942;47.894;11.424;2023-01-23T07:02:16;30.50;;;13.40;;
21562;SDS011;10942;47.894;11.424;2023-01-23T07:04:49;33.92;;;15.57;;
21562;SDS011;10942;47.894;11.424;2023-01-23T07:07:15;32.20;;;14.98;;
21562;SDS011;10942;47.894;11.424;2023-01-23T07:09:42;34.45;;;16.20;;
21562;SDS011;10942;47.894;11.424;2023-01-23T07:12:20;30.67;;;15.05;;
21562;SDS011;10942;47.894;11.424;2023-01-23T07:14:46;33.67;;;16.85;;
21562;SDS011;10942;47.894;11.424;2023-01-23T07:17:17;29.98;;;15.98;;
21562;SDS011;10942;47.894;11.424;2023-01-23T07:19:42;37.90;;;18.73;;
21562;SDS011;10942;47.894;11.424;2023-01-23T07:22:11;38.28;;;18.73;;
21562;SDS011;10942;47.894;11.424;2023-01-23T07:24:40;45.17;;;20.60;;
21562;SDS011;10942;47.894;11.424;2023-01-23T07:27:06;30.90;;;14.80;;
21562;SDS011;10942;47.894;11.424;2023-01-23T07:29:32;30.80;;;14.32;;
21562;SDS011;10942;47.894;11.424;2023-01-23T07:31:58;33.30;;;17.92;;
21562;SDS011;10942;47.894;11.424;2023-01-23T07:34:25;29.35;;;14.70;;
21562;SDS011;10942;47.894;11.424;2023-01-23T07:36:51;28.67;;;14.82;;
21562;SDS011;10942;47.894;11.424;2023-01-23T07:39:16;27.88;;;14.45;;
21562;SDS011;10942;47.894;11.424;2023-01-23T07:41:42;29.77;;;15.18;;
21562;SDS011;10942;47.894;11.424;2023-01-23T07:44:08;26.83;;;14.05;;
21562;SDS011;10942;47.894;11.424;2023-01-23T07:46:41;29.55;;;13.65;;
21562;SDS011;10942;47.894;11.424;2023-01-23T07:49:07;29.83;;;14.48;;
21562;SDS011;10942;47.894;11.424;2023-01-23T07:51:33;28.60;;;13.93;;
21562;SDS011;10942;47.894;11.424;2023-01-23T07:53:59;30.98;;;14.90;;
21562;SDS011;10942;47.894;11.424;2023-01-23T07:56:25;34.33;;;15.98;;
21562;SDS011;10942;47.894;11.424;2023-01-23T07:58:51;36.40;;;18.60;;
21562;SDS011;10942;47.894;11.424;2023-01-23T08:01:17;31.63;;;14.60;;
21562;SDS011;10942;47.894;11.424;2023-01-23T08:03:43;31.77;;;14.57;;
21562;SDS011;10942;47.894;11.424;2023-01-23T08:06:10;34.30;;;16.40;;
21562;SDS011;10942;47.894;11.424;2023-01-23T08:08:36;30.23;;;15.38;;
21562;SDS011;10942;47.894;11.424;2023-01-23T08:11:03;44.28;;;21.67;;
21562;SDS011;10942;47.894;11.424;2023-01-23T08:13:30;44.33;;;18.95;;
21562;SDS011;10942;47.894;11.424;2023-01-23T08:15:58;34.88;;;15.43;;
21562;SDS011;10942;47.894;11.424;2023-01-23T08:18:25;30.80;;;14.75;;
21562;SDS011;10942;47.894;11.424;2023-01-23T08:20:51;35.85;;;17.40;;
21562;SDS011;10942;47.894;11.424;2023-01-23T08:23:23;40.72;;;19.13;;
21562;SDS011;10942;47.894;11.424;2023-01-23T08:25:52;32.95;;;15.27;;
21562;SDS011;10942;47.894;11.424;2023-01-23T08:28:19;34.50;;;16.52;;
21562;SDS011;10942;47.894;11.424;2023-01-23T08:30:45;44.05;;;18.67;;
21562;SDS011;10942;47.894;11.424;2023-01-23T08:33:11;38.13;;;16.60;;
21562;SDS011;10942;47.894;11.424;2023-01-23T08:35:36;37.10;;;16.52;;
21562;SDS011;10942;47.894;11.424;2023-01-23T08:38:02;41.80;;;17.90;;
21562;SDS011;10942;47.894;11.424;2023-01-23T08:40:29;42.92;;;18.42;;
21562;SDS011;10942;47.894;11.424;2023-01-23T08:42:55;52.97;;;22.63;;
21562;SDS011;10942;47.894;11.424;2023-01-23T08:45:20;41.10;;;18.52;;
21562;SDS011;10942;47.894;11.424;2023-01-23T08:47:46;44.13;;;20.85;;
21562;SDS011;10942;47.894;11.424;2023-01-23T08:50:12;43.08;;;18.27;;
21562;SDS011;10942;47.894;11.424;2023-01-23T08:52:38;43.95;;;19.10;;
21562;SDS011;10942;47.894;11.424;2023-01-23T08:55:04;43.30;;;18.77;;
21562;SDS011;10942;47.894;11.424;2023-01-23T08:57:30;45.30;;;19.45;;
21562;SDS011;10942;47.894;11.424;2023-01-23T08:59:56;46.15;;;19.48;;
21562;SDS011;10942;47.894;11.424;2023-01-23T09:02:21;45.35;;;18.75;;
21562;SDS011;10942;47.894;11.424;2023-01-23T09:04:47;47.50;;;20.02;;
21562;SDS011;10942;47.894;11.424;2023-01-23T09:07:14;54.33;;;22.17;;
21562;SDS011;10942;47.894;11.424;2023-01-23T09:09:40;65.40;;;25.10;;
21562;SDS011;10942;47.894;11.424;2023-01-23T09:12:05;57.88;;;24.65;;
21562;SDS011;10942;47.894;11.424;2023-01-23T09:14:32;47.80;;;19.75;;
21562;SDS011;10942;47.894;11.424;2023-01-23T09:16:58;41.25;;;18.55;;
21562;SDS011;10942;47.894;11.424;2023-01-23T09:19:23;43.58;;;19.08;;
21562;SDS011;10942;47.894;11.424;2023-01-23T09:21:51;44.47;;;19.23;;
21562;SDS011;10942;47.894;11.424;2023-01-23T09:24:18;41.90;;;19.33;;
21562;SDS011;10942;47.894;11.424;2023-01-23T09:26:43;38.55;;;18.65;;
21562;SDS011;10942;47.894;11.424;2023-01-23T09:29:09;46.20;;;18.80;;
21562;SDS011;10942;47.894;11.424;2023-01-23T09:31:34;39.60;;;17.63;;
21562;SDS011;10942;47.894;11.424;2023-01-23T09:34:01;41.03;;;17.85;;
21562;SDS011;10942;47.894;11.424;2023-01-23T09:36:27;40.63;;;17.52;;
21562;SDS011;10942;47.894;11.424;2023-01-23T09:38:53;39.97;;;16.35;;
21562;SDS011;10942;47.894;11.424;2023-01-23T09:41:20;38.95;;;17.45;;
21562;SDS011;10942;47.894;11.424;2023-01-23T09:46:36;44.80;;;18.33;;
21562;SDS011;10942;47.894;11.424;2023-01-23T09:54:41;40.15;;;18.20;;
21562;SDS011;10942;47.894;11.424;2023-01-23T09:57:23;38.97;;;17.17;;
21562;SDS011;10942;47.894;11.424;2023-01-23T09:59:55;42.58;;;17.42;;
21562;SDS011;10942;47.894;11.424;2023-01-23T10:02:29;35.08;;;16.80;;
21562;SDS011;10942;47.894;11.424;2023-01-23T10:04:55;41.72;;;17.83;;
21562;SDS011;10942;47.894;11.424;2023-01-23T10:13:07;43.08;;;18.63;;
21562;SDS011;10942;47.894;11.424;2023-01-23T10:25:36;43.20;;;18.20;;
21562;SDS011;10942;47.894;11.424;2023-01-23T10:30:57;47.33;;;20.60;;
21562;SDS011;10942;47.894;11.424;2023-01-23T10:34:01;42.25;;;18.63;;
21562;SDS011;10942;47.894;11.424;2023-01-23T10:36:22;40.63;;;18.30;;
21562;SDS011;10942;47.894;11.424;2023-01-23T10:39:12;41.42;;;18.00;;
21562;SDS011;10942;47.894;11.424;2023-01-23T10:41:48;39.05;;;18.05;;
21562;SDS011;10942;47.894;11.424;2023-01-23T10:44:14;49.70;;;19.55;;
21562;SDS011;10942;47.894;11.424;2023-01-23T10:49:34;39.72;;;17.80;;
21562;SDS011;10942;47.894;11.424;2023-01-23T10:52:02;44.13;;;17.55;;
21562;SDS011;10942;47.894;11.424;2023-01-23T10:54:29;44.50;;;18.55;;
21562;SDS011;10942;47.894;11.424;2023-01-23T10:59:42;39.22;;;17.65;;
21562;SDS011;10942;47.894;11.424;2023-01-23T11:02:19;48.67;;;19.55;;
21562;SDS011;10942;47.894;11.424;2023-01-23T11:04:50;44.83;;;17.80;;
21562;SDS011;10942;47.894;11.424;2023-01-23T11:07:18;44.60;;;18.60;;
21562;SDS011;10942;47.894;11.424;2023-01-23T11:12:15;50.65;;;19.88;;
21562;SDS011;10942;47.894;11.424;2023-01-23T11:14:48;50.75;;;19.38;;
21562;SDS011;10942;47.894;11.424;2023-01-23T11:17:16;56.28;;;22.30;;
21562;SDS011;10942;47.894;11.424;2023-01-23T11:19:45;53.08;;;24.02;;
21562;SDS011;10942;47.894;11.424;2023-01-23T11:22:27;55.47;;;22.42;;
21562;SDS011;10942;47.894;11.424;2023-01-23T11:24:57;57.17;;;22.15;;
21562;SDS011;10942;47.894;11.424;2023-01-23T11:27:27;65.90;;;26.50;;
21562;SDS011;10942;47.894;11.424;2023-01-23T11:32:34;58.22;;;22.25;;
21562;SDS011;10942;47.894;11.424;2023-01-23T11:35:17;64.03;;;23.17;;
21562;SDS011;10942;47.894;11.424;2023-01-23T11:37:49;64.57;;;24.38;;
21562;SDS011;10942;47.894;11.424;2023-01-23T11:40:18;60.13;;;24.20;;
21562;SDS011;10942;47.894;11.424;2023-01-23T11:42:44;60.83;;;24.70;;
21562;SDS011;10942;47.894;11.424;2023-01-23T11:45:19;56.38;;;21.67;;
21562;SDS011;10942;47.894;11.424;2023-01-23T11:48:20;54.55;;;20.63;;
21562;SDS011;10942;47.894;11.424;2023-01-23T11:50:49;55.65;;;22.30;;
21562;SDS011;10942;47.894;11.424;2023-01-23T12:01:06;47.97;;;19.80;;
21562;SDS011;10942;47.894;11.424;2023-01-23T12:06:42;62.38;;;20.05;;
21562;SDS011;10942;47.894;11.424;2023-01-23T12:09:25;48.03;;;19.85;;
21562;SDS011;10942;47.894;11.424;2023-01-23T12:12:12;52.63;;;20.35;;
21562;SDS011;10942;47.894;11.424;2023-01-23T12:14:56;47.38;;;18.77;;
21562;SDS011;10942;47.894;11.424;2023-01-23T12:23:14;50.65;;;19.92;;
21562;SDS011;10942;47.894;11.424;2023-01-23T12:25:56;46.38;;;19.70;;
21562;SDS011;10942;47.894;11.424;2023-01-23T12:36:46;56.50;;;21.40;;
21562;SDS011;10942;47.894;11.424;2023-01-23T12:42:07;48.20;;;20.73;;
21562;SDS011;10942;47.894;11.424;2023-01-23T12:44:37;71.63;;;28.65;;
21562;SDS011;10942;47.894;11.424;2023-01-23T12:47:11;49.65;;;22.52;;
21562;SDS011;10942;47.894;11.424;2023-01-23T12:55:05;54.38;;;21.48;;
21562;SDS011;10942;47.894;11.424;2023-01-23T12:57:31;57.22;;;23.17;;
21562;SDS011;10942;47.894;11.424;2023-01-23T13:00:09;49.55;;;21.40;;
21562;SDS011;10942;47.894;11.424;2023-01-23T13:05:36;47.30;;;20.73;;
21562;SDS011;10942;47.894;11.424;2023-01-23T13:08:18;46.38;;;18.88;;
21562;SDS011;10942;47.894;11.424;2023-01-23T13:13:55;46.33;;;19.27;;
21562;SDS011;10942;47.894;11.424;2023-01-23T13:16:24;45.72;;;19.73;;
21562;SDS011;10942;47.894;11.424;2023-01-23T13:18:53;40.70;;;18.15;;
21562;SDS011;10942;47.894;11.424;2023-01-23T13:21:39;45.17;;;19.25;;
21562;SDS011;10942;47.894;11.424;2023-01-23T13:24:29;39.35;;;18.95;;
21562;SDS011;10942;47.894;11.424;2023-01-23T13:27:47;42.00;;;19.58;;
21562;SDS011;10942;47.894;11.424;2023-01-23T13:32:56;41.85;;;18.45;;
21562;SDS011;10942;47.894;11.424;2023-01-23T13:52:24;37.80;;;17.45;;
21562;SDS011;10942;47.894;11.424;2023-01-23T13:58:05;37.83;;;15.18;;
21562;SDS011;10942;47.894;11.424;2023-01-23T14:01:02;37.15;;;15.35;;
21562;SDS011;10942;47.894;11.424;2023-01-23T14:04:04;37.97;;;16.15;;
21562;SDS011;10942;47.894;11.424;2023-01-23T14:06:49;43.85;;;18.45;;
21562;SDS011;10942;47.894;11.424;2023-01-23T14:09:25;50.10;;;20.83;;
21562;SDS011;10942;47.894;11.424;2023-01-23T14:11:56;48.45;;;18.67;;
21562;SDS011;10942;47.894;11.424;2023-01-23T14:14:23;50.17;;;20.60;;
21562;SDS011;10942;47.894;11.424;2023-01-23T14:17:08;54.78;;;20.38;;
21562;SDS011;10942;47.894;11.424;2023-01-23T14:19:37;52.95;;;20.55;;
21562;SDS011;10942;47.894;11.424;2023-01-23T14:22:25;57.38;;;22.08;;
21562;SDS011;10942;47.894;11.424;2023-01-23T14:24:52;52.60;;;22.05;;
21562;SDS011;10942;47.894;11.424;2023-01-23T14:27:32;52.90;;;22.63;;
21562;SDS011;10942;47.894;11.424;2023-01-23T14:30:00;56.70;;;22.67;;
21562;SDS011;10942;47.894;11.424;2023-01-23T14:32:32;66.13;;;23.02;;
21562;SDS011;10942;47.894;11.424;2023-01-23T14:34:58;56.88;;;22.38;;
21562;SDS011;10942;47.894;11.424;2023-01-23T14:37:24;61.78;;;23.33;;
21562;SDS011;10942;47.894;11.424;2023-01-23T14:39:51;57.65;;;22.45;;
21562;SDS011;10942;47.894;11.424;2023-01-23T14:42:27;66.18;;;24.90;;
21562;SDS011;10942;47.894;11.424;2023-01-23T14:44:55;61.60;;;24.83;;
21562;SDS011;10942;47.894;11.424;2023-01-23T14:47:25;56.88;;;22.50;;
21562;SDS011;10942;47.894;11.424;2023-01-23T14:49:57;64.35;;;23.77;;
21562;SDS011;10942;47.894;11.424;2023-01-23T14:52:25;63.42;;;22.15;;
21562;SDS011;10942;47.894;11.424;2023-01-23T14:54:53;68.63;;;24.13;;
21562;SDS011;10942;47.894;11.424;2023-01-23T14:57:24;62.30;;;23.95;;
21562;SDS011;10942;47.894;11.424;2023-01-23T14:59:52;54.80;;;22.38;;
21562;SDS011;10942;47.894;11.424;2023-01-23T15:05:06;65.78;;;24.25;;
21562;SDS011;10942;47.894;11.424;2023-01-23T15:08:03;69.45;;;25.88;;
21562;SDS011;10942;47.894;11.424;2023-01-23T15:13:05;62.35;;;23.52;;
21562;SDS011;10942;47.894;11.424;2023-01-23T15:15:35;60.40;;;23.42;;
21562;SDS011;10942;47.894;11.424;2023-01-23T15:18:03;62.92;;;23.75;;
21562;SDS011;10942;47.894;11.424;2023-01-23T15:20:43;64.38;;;24.23;;
21562;SDS011;10942;47.894;11.424;2023-01-23T15:23:23;62.33;;;22.88;;
21562;SDS011;10942;47.894;11.424;2023-01-23T15:28:53;74.20;;;25.95;;
21562;SDS011;10942;47.894;11.424;2023-01-23T15:33:56;63.60;;;23.58;;
21562;SDS011;10942;47.894;11.424;2023-01-23T15:39:52;66.95;;;22.90;;
21562;SDS011;10942;47.894;11.424;2023-01-23T15:42:29;68.80;;;25.42;;
21562;SDS011;10942;47.894;11.424;2023-01-23T15:44:56;66.78;;;24.35;;
21562;SDS011;10942;47.894;11.424;2023-01-23T15:47:26;69.22;;;24.27;;
21562;SDS011;10942;47.894;11.424;2023-01-23T15:49:53;62.80;;;24.83;;
21562;SDS011;10942;47.894;11.424;2023-01-23T15:52:20;65.32;;;23.90;;
21562;SDS011;10942;47.894;11.424;2023-01-23T15:55:08;68.47;;;24.20;;
21562;SDS011;10942;47.894;11.424;2023-01-23T15:57:35;68.55;;;24.38;;
21562;SDS011;10942;47.894;11.424;2023-01-23T16:00:01;61.28;;;23.33;;
21562;SDS011;10942;47.894;11.424;2023-01-23T16:02:37;65.35;;;24.73;;
21562;SDS011;10942;47.894;11.424;2023-01-23T16:05:02;64.97;;;22.50;;
21562;SDS011;10942;47.894;11.424;2023-01-23T16:07:32;76.93;;;28.55;;
21562;SDS011;10942;47.894;11.424;2023-01-23T16:10:35;72.95;;;27.98;;
21562;SDS011;10942;47.894;11.424;2023-01-23T16:12:55;58.50;;;22.60;;
21562;SDS011;10942;47.894;11.424;2023-01-23T16:15:31;66.18;;;24.63;;
21562;SDS011;10942;47.894;11.424;2023-01-23T16:17:58;70.55;;;29.60;;
21562;SDS011;10942;47.894;11.424;2023-01-23T16:20:29;65.05;;;23.85;;
21562;SDS011;10942;47.894;11.424;2023-01-23T16:22:59;61.47;;;25.08;;
21562;SDS011;10942;47.894;11.424;2023-01-23T16:25:30;56.65;;;23.02;;
21562;SDS011;10942;47.894;11.424;2023-01-23T16:27:58;61.93;;;23.27;;